Time;durP1;ratioP1;P1;durP2;ratioP2;P2;SDS_P1;SDS_P2;PMS_P1;PMS_P2;Temp;Humidity;BMP_temperature;BMP_pressure;BME280_temperature;BME280_humidity;BME280_pressure;Samples;Min_cycle;Max_cycle;Signal;HPM_P1;HPM_P2
2021/11/21 00:00:58;;;;;;;7.50;6.97;;;;;;;3.07;91.57;95544.56;5064948;28;20253;-72
2021/11/21 00:03:26;;;;;;;6.33;5.83;;;;;;;3.07;91.21;95534.16;5061888;28;20214;-72
2021/11/21 00:05:54;;;;;;;5.70;5.23;;;;;;;3.13;91.11;95528.38;5059950;28;20284;-72
2021/11/21 00:08:22;;;;;;;5.37;5.00;;;;;;;3.16;90.86;95521.22;5061276;28;20309;-73
2021/11/21 00:10:50;;;;;;;5.40;5.00;;;;;;;3.16;90.33;95526.44;5058053;28;20226;-71
2021/11/21 00:13:19;;;;;;;5.60;5.20;;;;;;;3.04;90.00;95524.00;5064515;28;20308;-73
2021/11/21 00:15:47;;;;;;;5.77;5.33;;;;;;;3.06;90.33;95511.66;5043754;28;20237;-73
2021/11/21 00:18:15;;;;;;;4.97;4.67;;;;;;;3.04;89.86;95503.16;5056329;28;20218;-72
2021/11/21 00:20:44;;;;;;;5.60;5.30;;;;;;;3.00;90.16;95499.19;5057504;28;20226;-72
2021/11/21 00:23:13;;;;;;;6.63;6.23;;;;;;;3.02;89.67;95499.88;5051753;28;20320;-72
2021/11/21 00:25:41;;;;;;;5.20;4.90;;;;;;;3.00;89.75;95486.16;5059768;28;20231;-72
2021/11/21 00:28:10;;;;;;;5.73;5.33;;;;;;;2.99;90.05;95484.50;5059596;28;20313;-72
2021/11/21 00:30:40;;;;;;;4.97;4.63;;;;;;;3.00;89.91;95485.31;5062258;28;20222;-73
2021/11/21 00:33:08;;;;;;;5.60;5.20;;;;;;;2.98;89.56;95482.03;5058951;28;20214;-72
2021/11/21 00:35:36;;;;;;;4.10;3.80;;;;;;;2.96;89.40;95479.59;5059894;28;20520;-73
2021/11/21 00:38:04;;;;;;;4.43;4.13;;;;;;;2.91;89.79;95473.97;5063146;28;20207;-73
2021/11/21 00:40:32;;;;;;;4.50;4.20;;;;;;;2.89;89.76;95482.88;5060898;28;20310;-73
2021/11/21 00:43:01;;;;;;;6.07;5.67;;;;;;;2.78;89.90;95478.66;5062671;28;20723;-72
2021/11/21 00:45:30;;;;;;;5.70;5.30;;;;;;;2.75;89.95;95471.13;5064171;28;20222;-73
2021/11/21 00:48:00;;;;;;;5.93;5.17;;;;;;;2.70;90.34;95470.72;5060527;28;20211;-72
2021/11/21 00:50:31;;;;;;;6.17;5.67;;;;;;;2.65;90.36;95465.09;5063029;28;20222;-73
2021/11/21 00:53:02;;;;;;;4.77;4.47;;;;;;;2.58;90.70;95469.25;5062454;28;20210;-73
2021/11/21 00:55:38;;;;;;;5.73;5.33;;;;;;;2.60;90.98;95467.31;5059591;28;20222;-73
2021/11/21 00:58:09;;;;;;;4.67;4.40;;;;;;;2.36;91.27;95470.34;5058777;28;20271;-75
2021/11/21 01:00:39;;;;;;;5.27;4.87;;;;;;;2.28;90.90;95460.63;5063346;28;20225;-73
2021/11/21 01:03:12;;;;;;;5.03;4.63;;;;;;;2.29;91.61;95459.69;5040587;28;20699;-73
2021/11/21 01:05:41;;;;;;;6.40;6.00;;;;;;;2.26;91.04;95462.53;5042834;28;20322;-73
2021/11/21 01:08:09;;;;;;;4.40;4.10;;;;;;;2.29;91.92;95459.69;5054746;28;20249;-72
2021/11/21 01:10:38;;;;;;;3.53;3.30;;;;;;;2.31;90.78;95451.75;5054302;28;20255;-73
2021/11/21 01:13:06;;;;;;;3.87;3.63;;;;;;;2.25;90.88;95453.91;5059357;28;20226;-73
2021/11/21 01:15:34;;;;;;;5.43;5.03;;;;;;;2.30;90.72;95450.09;5061894;28;20207;-74
2021/11/21 01:18:04;;;;;;;4.53;4.23;;;;;;;2.21;90.43;95452.56;5067623;28;20301;-74
2021/11/21 01:20:37;;;;;;;4.27;3.97;;;;;;;2.22;90.34;95453.38;5063013;28;20694;-73
2021/11/21 01:23:05;;;;;;;4.43;4.13;;;;;;;2.13;90.51;95459.41;5062424;28;20244;-73
2021/11/21 01:25:33;;;;;;;4.73;4.17;;;;;;;2.07;91.49;95459.94;5058289;28;20219;-73
2021/11/21 01:28:01;;;;;;;4.97;4.67;;;;;;;2.13;91.91;95456.81;5062807;28;20250;-73
2021/11/21 01:30:32;;;;;;;4.13;3.83;;;;;;;2.19;91.07;95457.06;5063745;28;20313;-73
2021/11/21 01:33:01;;;;;;;3.40;3.20;;;;;;;2.23;91.69;95449.81;5059536;28;20218;-73
2021/11/21 01:35:30;;;;;;;4.53;4.23;;;;;;;2.23;91.82;95442.81;5059955;28;20221;-74
2021/11/21 01:38:03;;;;;;;4.23;3.87;;;;;;;2.23;90.78;95435.03;5062812;28;20831;-73
2021/11/21 01:40:32;;;;;;;5.57;5.23;;;;;;;2.14;91.62;95441.06;5064342;28;20292;-73
2021/11/21 01:43:01;;;;;;;3.83;3.63;;;;;;;2.20;91.47;95432.69;5069305;28;20215;-73
2021/11/21 01:45:30;;;;;;;5.20;4.73;;;;;;;2.16;91.20;95428.72;5062799;28;20588;-73
2021/11/21 01:47:58;;;;;;;3.97;3.67;;;;;;;2.21;91.64;95420.50;5066543;28;20355;-73
2021/11/21 01:50:31;;;;;;;4.57;4.27;;;;;;;2.21;91.69;95425.72;5062030;28;20638;-74
2021/11/21 01:53:01;;;;;;;4.10;3.87;;;;;;;2.13;91.53;95418.59;5063550;28;20244;-73
2021/11/21 01:55:30;;;;;;;4.20;3.90;;;;;;;2.21;91.52;95410.09;5063279;28;20279;-74
2021/11/21 01:57:59;;;;;;;4.57;4.03;;;;;;;2.21;91.97;95404.88;5076546;28;20213;-73
2021/11/21 02:00:31;;;;;;;5.47;5.07;;;;;;;2.14;91.69;95399.41;5067550;28;20647;-73
2021/11/21 02:03:00;;;;;;;6.53;6.07;;;;;;;2.20;91.88;95392.84;5067774;28;20301;-73
2021/11/21 02:05:28;;;;;;;4.73;4.43;;;;;;;2.21;91.25;95389.25;5061353;28;20694;-73
2021/11/21 02:07:56;;;;;;;4.10;3.70;;;;;;;2.28;91.88;95390.31;5061865;28;20237;-73
2021/11/21 02:10:26;;;;;;;5.13;4.33;;;;;;;2.22;90.84;95390.91;5062764;28;20279;-72
2021/11/21 02:12:55;;;;;;;5.33;4.93;;;;;;;2.23;91.30;95384.72;5070238;28;20217;-73
2021/11/21 02:15:26;;;;;;;5.80;5.40;;;;;;;2.05;91.60;95383.81;5062396;28;20226;-74
2021/11/21 02:17:56;;;;;;;5.43;5.03;;;;;;;2.14;91.36;95389.00;5066739;28;20450;-74
2021/11/21 02:20:26;;;;;;;5.77;5.27;;;;;;;2.24;91.99;95381.16;5066576;28;20725;-73
2021/11/21 02:22:54;;;;;;;5.87;5.40;;;;;;;2.26;91.84;95371.44;5066548;28;20276;-73
2021/11/21 02:25:22;;;;;;;6.20;4.70;;;;;;;2.29;91.60;95368.56;5062751;28;20221;-73
2021/11/21 02:27:55;;;;;;;6.27;5.77;;;;;;;2.31;91.61;95364.03;5055439;28;20313;-74
2021/11/21 02:30:23;;;;;;;5.80;5.27;;;;;;;2.25;90.91;95364.59;5068078;28;20695;-73
2021/11/21 02:32:54;;;;;;;6.13;5.63;;;;;;;2.18;91.11;95350.47;5064904;28;20210;-74
2021/11/21 02:35:24;;;;;;;6.60;6.00;;;;;;;2.26;90.85;95345.41;5066341;28;20217;-74
2021/11/21 02:37:54;;;;;;;5.13;4.80;;;;;;;2.20;91.56;95348.56;5066853;28;20761;-73
2021/11/21 02:40:22;;;;;;;4.43;4.13;;;;;;;2.25;90.66;95354.16;5059958;28;20725;-73
2021/11/21 02:42:50;;;;;;;4.93;4.53;;;;;;;2.26;91.45;95350.59;5065691;28;20398;-73
2021/11/21 02:45:19;;;;;;;5.53;5.07;;;;;;;2.18;90.96;95337.47;5061128;28;20249;-73
2021/11/21 02:47:47;;;;;;;5.93;5.47;;;;;;;2.20;91.63;95333.78;5062892;28;20295;-73
2021/11/21 02:50:17;;;;;;;7.47;4.67;;;;;;;2.13;91.83;95331.88;5059244;28;20213;-73
2021/11/21 02:52:46;;;;;;;5.47;5.07;;;;;;;2.21;91.31;95326.78;5060983;28;20237;-73
2021/11/21 02:55:16;;;;;;;5.23;4.73;;;;;;;1.87;91.50;95329.84;5060345;28;20730;-74
2021/11/21 02:57:45;;;;;;;6.63;6.13;;;;;;;2.08;91.74;95332.28;5064895;28;20210;-72
2021/11/21 03:00:16;;;;;;;6.47;5.97;;;;;;;2.00;92.53;95322.56;5064277;28;20314;-73
2021/11/21 03:02:47;;;;;;;7.17;6.57;;;;;;;2.07;92.84;95316.81;5066121;28;20350;-73
2021/11/21 03:05:18;;;;;;;5.83;5.43;;;;;;;2.11;91.92;95310.38;5054596;28;20222;-73
2021/11/21 03:07:47;;;;;;;5.43;4.93;;;;;;;2.05;92.29;95321.34;5050274;28;20218;-73
2021/11/21 03:10:19;;;;;;;5.60;5.20;;;;;;;2.06;91.69;95305.56;5048780;28;20223;-73
2021/11/21 03:12:50;;;;;;;6.20;5.70;;;;;;;2.09;91.79;95307.06;5050859;28;20268;-74
2021/11/21 03:15:18;;;;;;;6.77;6.27;;;;;;;1.98;91.93;95297.66;5050385;28;20283;-73
2021/11/21 03:17:47;;;;;;;5.73;5.27;;;;;;;2.00;92.11;95299.13;5054301;28;20717;-73
2021/11/21 03:20:18;;;;;;;5.90;5.30;;;;;;;2.09;92.42;95287.06;5049106;28;20250;-73
2021/11/21 03:22:46;;;;;;;6.43;6.00;;;;;;;2.03;92.62;95286.84;5050083;28;27015;-74
2021/11/21 03:25:16;;;;;;;4.73;4.43;;;;;;;2.05;91.77;95280.50;5053029;28;20230;-74
2021/11/21 03:27:44;;;;;;;5.77;5.27;;;;;;;2.07;91.49;95282.97;5060703;28;20343;-73
2021/11/21 03:30:15;;;;;;;6.93;6.33;;;;;;;1.93;91.45;95287.69;5048588;28;20249;-74
2021/11/21 03:32:44;;;;;;;6.47;5.87;;;;;;;1.96;91.42;95276.97;5049533;28;20640;-74
2021/11/21 03:35:12;;;;;;;7.57;5.87;;;;;;;2.06;92.02;95276.13;5038863;28;20233;-75
2021/11/21 03:37:41;;;;;;;5.23;4.80;;;;;;;1.94;91.25;95272.88;5048249;28;20210;-74
2021/11/21 03:40:13;;;;;;;5.70;5.23;;;;;;;1.91;90.91;95263.56;5048052;28;20228;-74
2021/11/21 03:42:44;;;;;;;5.70;5.23;;;;;;;1.97;91.02;95263.00;5045376;28;20292;-74
2021/11/21 03:45:13;;;;;;;5.23;4.83;;;;;;;1.92;91.09;95260.03;5041025;28;21096;-74
2021/11/21 03:47:41;;;;;;;5.50;5.10;;;;;;;1.86;91.61;95263.16;5052905;28;20219;-74
2021/11/21 03:50:12;;;;;;;5.50;5.10;;;;;;;1.84;91.44;95262.50;5048058;28;20227;-74
2021/11/21 03:52:41;;;;;;;7.77;7.00;;;;;;;1.85;91.58;95264.13;5048717;28;20225;-73
2021/11/21 03:55:09;;;;;;;6.37;5.83;;;;;;;1.79;91.26;95272.50;5049479;28;20303;-75
2021/11/21 03:57:38;;;;;;;7.30;6.67;;;;;;;1.65;91.88;95270.34;5059919;28;20202;-73
2021/11/21 04:00:13;;;;;;;7.03;6.40;;;;;;;1.73;91.56;95274.81;5067063;28;20597;-74
2021/11/21 04:02:42;;;;;;;9.33;6.40;;;;;;;1.52;91.13;95267.19;5047346;28;20241;-74
2021/11/21 04:05:10;;;;;;;4.93;4.53;;;;;;;1.64;91.82;95271.25;5062172;28;20410;-74
2021/11/21 04:07:40;;;;;;;7.50;5.83;;;;;;;1.62;91.58;95268.81;5050853;28;20245;-75
2021/11/21 04:10:11;;;;;;;5.93;5.37;;;;;;;1.67;91.80;95260.59;5047592;28;20235;-73
2021/11/21 04:12:40;;;;;;;5.20;4.70;;;;;;;1.65;91.91;95262.53;5047807;28;20820;-73
2021/11/21 04:15:11;;;;;;;5.27;4.87;;;;;;;1.70;91.71;95260.31;5053250;28;20224;-72
2021/11/21 04:17:41;;;;;;;7.50;6.93;;;;;;;1.76;91.95;95249.38;5050658;28;20249;-73
2021/11/21 04:20:11;;;;;;;6.50;5.90;;;;;;;1.76;90.95;95243.34;5064540;28;20327;-73
2021/11/21 04:22:40;;;;;;;7.83;6.13;;;;;;;1.74;90.89;95240.88;5054398;28;20230;-73
2021/11/21 04:25:10;;;;;;;6.17;5.67;;;;;;;1.71;90.74;95246.34;5045006;28;20222;-74
2021/11/21 04:27:39;;;;;;;6.80;6.20;;;;;;;1.66;90.93;95243.38;5047937;28;20306;-74
2021/11/21 04:30:09;;;;;;;7.60;6.83;;;;;;;1.58;91.29;95238.03;5048499;28;20252;-73
2021/11/21 04:32:39;;;;;;;6.37;5.77;;;;;;;1.49;91.03;95246.66;5046979;28;20775;-73
2021/11/21 04:35:10;;;;;;;6.43;5.93;;;;;;;1.33;92.10;95245.44;5049035;28;20234;-74
2021/11/21 04:37:40;;;;;;;6.20;5.60;;;;;;;1.31;91.82;95233.53;5049144;28;20228;-73
2021/11/21 04:40:10;;;;;;;4.83;4.43;;;;;;;1.27;91.96;95235.56;5046542;28;20270;-73
2021/11/21 04:42:39;;;;;;;6.00;5.40;;;;;;;1.25;92.05;95234.91;5046993;28;20247;-74
2021/11/21 04:45:08;;;;;;;5.77;5.37;;;;;;;1.22;91.73;95224.78;5046925;28;20224;-73
2021/11/21 04:47:38;;;;;;;6.00;5.50;;;;;;;1.20;92.51;95224.13;5058860;28;20315;-74
2021/11/21 04:50:09;;;;;;;5.40;4.97;;;;;;;1.16;92.36;95214.13;5048970;28;20229;-73
2021/11/21 04:52:38;;;;;;;5.97;5.37;;;;;;;1.16;92.39;95217.53;5048459;28;20681;-73
2021/11/21 04:55:08;;;;;;;5.37;4.97;;;;;;;1.18;92.41;95213.00;5045893;28;20213;-73
2021/11/21 04:57:39;;;;;;;5.67;5.17;;;;;;;1.15;92.09;95208.09;5050041;28;20302;-73
2021/11/21 05:00:10;;;;;;;6.37;5.53;;;;;;;1.09;91.82;95204.25;5045236;28;20303;-74
2021/11/21 05:02:40;;;;;;;5.30;4.93;;;;;;;1.13;91.73;95210.03;5049762;28;20314;-73
2021/11/21 05:05:09;;;;;;;6.03;5.53;;;;;;;1.15;91.59;95202.91;5049150;28;20235;-73
2021/11/21 05:07:38;;;;;;;6.30;5.90;;;;;;;1.16;91.54;95204.53;5049823;28;20442;-73
2021/11/21 05:10:07;;;;;;;5.03;4.73;;;;;;;1.16;91.29;95199.34;5063746;28;20247;-72
2021/11/21 05:12:36;;;;;;;4.47;4.17;;;;;;;1.17;91.38;95193.19;5054441;28;20714;-73
2021/11/21 05:15:06;;;;;;;5.20;4.83;;;;;;;1.17;92.23;95200.16;5046363;28;20223;-73
2021/11/21 05:17:34;;;;;;;6.00;5.50;;;;;;;1.23;92.06;95195.25;5058354;28;20228;-73
2021/11/21 05:20:05;;;;;;;4.83;4.43;;;;;;;1.34;91.12;95197.69;5058156;28;20292;-73
2021/11/21 05:22:33;;;;;;;5.73;4.03;;;;;;;1.37;91.50;95187.03;5063229;28;20688;-73
2021/11/21 05:25:01;;;;;;;4.47;4.07;;;;;;;1.36;90.76;95187.97;5059734;28;20219;-73
2021/11/21 05:27:30;;;;;;;5.47;4.67;;;;;;;1.33;90.30;95190.03;5055131;28;20228;-73
2021/11/21 05:29:58;;;;;;;4.90;4.53;;;;;;;1.28;89.90;95192.22;5060266;28;20279;-73
2021/11/21 05:32:26;;;;;;;5.07;4.67;;;;;;;1.24;90.54;95180.47;5061256;28;20225;-73
2021/11/21 05:34:55;;;;;;;3.97;3.70;;;;;;;1.22;90.75;95183.22;5056866;28;20248;-73
2021/11/21 05:37:24;;;;;;;5.10;4.80;;;;;;;1.14;90.75;95185.66;5059743;28;20227;-73
2021/11/21 05:39:52;;;;;;;4.00;3.70;;;;;;;1.13;90.40;95187.44;5060508;28;20725;-73
2021/11/21 05:42:20;;;;;;;3.93;3.67;;;;;;;1.12;90.80;95185.00;5065188;28;20244;-73
2021/11/21 05:44:48;;;;;;;4.60;4.23;;;;;;;1.13;90.76;95177.06;5062495;28;20256;-73
2021/11/21 05:47:17;;;;;;;3.93;3.60;;;;;;;1.04;90.82;95183.09;5065611;28;20274;-73
2021/11/21 05:49:45;;;;;;;3.80;3.47;;;;;;;0.95;90.41;95170.91;5058872;28;20619;-73
2021/11/21 05:52:14;;;;;;;4.17;3.87;;;;;;;0.97;90.64;95168.19;5050271;28;20907;-73
2021/11/21 05:54:43;;;;;;;3.83;3.40;;;;;;;1.04;91.22;95171.88;5082582;28;20612;-73
2021/11/21 05:57:13;;;;;;;3.83;3.53;;;;;;;1.08;91.15;95170.63;5053746;28;20731;-73
2021/11/21 05:59:41;;;;;;;5.27;4.87;;;;;;;1.10;91.66;95164.34;5053370;28;20253;-73
2021/11/21 06:02:10;;;;;;;4.00;3.70;;;;;;;1.04;90.48;95164.91;5058695;28;20216;-72
2021/11/21 06:04:38;;;;;;;5.13;3.50;;;;;;;1.01;90.44;95161.75;5054515;28;20235;-73
2021/11/21 06:07:07;;;;;;;2.90;2.70;;;;;;;0.97;90.98;95158.59;5063611;28;20295;-73
2021/11/21 06:09:36;;;;;;;4.43;4.03;;;;;;;1.02;91.01;95160.81;5057613;28;20248;-73
2021/11/21 06:12:06;;;;;;;13.90;6.73;;;;;;;0.91;90.82;95163.53;5055127;28;20730;-71
2021/11/21 06:14:34;;;;;;;10.07;7.27;;;;;;;0.85;91.01;95157.94;5060811;28;20515;-71
2021/11/21 06:17:04;;;;;;;6.73;6.20;;;;;;;0.84;91.38;95153.69;5049978;28;20225;-71
2021/11/21 06:19:32;;;;;;;7.83;6.87;;;;;;;0.80;91.06;95147.13;5042356;28;20262;-71
2021/11/21 06:22:00;;;;;;;5.57;5.07;;;;;;;0.77;90.86;95150.00;5041991;28;20280;-71
2021/11/21 06:24:30;;;;;;;8.93;7.50;;;;;;;0.70;91.40;95154.09;5053823;28;20349;-71
2021/11/21 06:26:58;;;;;;;8.33;7.53;;;;;;;0.64;91.50;95157.25;5050615;28;20316;-71
2021/11/21 06:29:28;;;;;;;10.23;7.10;;;;;;;0.70;91.94;95156.69;5052770;28;20221;-70
2021/11/21 06:31:56;;;;;;;5.10;4.60;;;;;;;0.69;91.64;95160.25;5049004;28;21033;-71
2021/11/21 06:34:24;;;;;;;6.63;5.97;;;;;;;0.72;91.19;95154.75;5048033;28;20565;-71
2021/11/21 06:36:52;;;;;;;6.27;5.53;;;;;;;0.73;91.30;95155.59;5052337;28;21279;-71
2021/11/21 06:39:21;;;;;;;4.87;4.47;;;;;;;0.69;91.35;95156.81;5053958;28;20540;-71
2021/11/21 06:41:49;;;;;;;2.97;2.80;;;;;;;0.73;91.08;95150.38;5042196;28;21161;-71
2021/11/21 06:44:17;;;;;;;2.67;2.53;;;;;;;0.75;90.83;95146.72;5046805;28;20959;-71
2021/11/21 06:46:47;;;;;;;3.87;3.57;;;;;;;0.75;90.73;95146.72;5046988;28;20423;-71
2021/11/21 06:49:15;;;;;;;3.73;3.47;;;;;;;0.72;91.18;95139.19;5064751;28;20456;-71
2021/11/21 06:51:44;;;;;;;3.57;3.37;;;;;;;0.75;91.07;95151.91;5064623;28;20227;-71
2021/11/21 06:54:14;;;;;;;3.33;3.13;;;;;;;0.70;90.94;95135.91;5048833;28;20481;-71
2021/11/21 06:56:42;;;;;;;5.70;4.13;;;;;;;0.71;91.11;95136.72;5053416;28;20533;-70
2021/11/21 06:59:10;;;;;;;3.67;3.47;;;;;;;0.75;91.18;95133.75;5057326;28;20223;-71
2021/11/21 07:01:41;;;;;;;4.60;4.30;;;;;;;0.88;91.31;95143.03;5061127;28;20253;-70
2021/11/21 07:04:11;;;;;;;4.37;4.07;;;;;;;0.91;91.96;95138.34;5062253;28;20864;-71
2021/11/21 07:06:42;;;;;;;5.33;4.93;;;;;;;0.87;92.00;95131.81;5058271;28;20235;-71
2021/11/21 07:09:12;;;;;;;7.40;6.60;;;;;;;1.03;92.54;95139.06;5040867;28;20465;-71
2021/11/21 07:11:40;;;;;;;6.50;5.90;;;;;;;1.13;92.41;95145.88;5044502;28;20770;-71
2021/11/21 07:14:11;;;;;;;6.47;5.87;;;;;;;1.24;92.42;95134.50;5047316;28;20791;-71
2021/11/21 07:16:39;;;;;;;7.97;7.37;;;;;;;1.39;91.93;95143.50;5050522;28;21501;-71
2021/11/21 07:19:07;;;;;;;5.60;5.07;;;;;;;1.46;92.73;95132.53;5049482;28;20228;-71
2021/11/21 07:21:37;;;;;;;8.50;7.53;;;;;;;1.57;93.03;95137.59;5047929;28;20224;-71
2021/11/21 07:24:05;;;;;;;8.50;6.37;;;;;;;1.74;92.16;95126.44;5049447;28;20254;-71
2021/11/21 07:26:34;;;;;;;7.03;6.33;;;;;;;1.88;92.06;95128.56;5054722;28;20734;-71
2021/11/21 07:29:04;;;;;;;6.50;5.90;;;;;;;1.99;91.54;95128.34;5057337;28;20247;-71
2021/11/21 07:31:32;;;;;;;7.87;7.17;;;;;;;2.15;91.02;95139.94;5051621;28;21332;-71
2021/11/21 07:34:01;;;;;;;6.67;6.07;;;;;;;2.35;90.07;95136.25;5050679;28;20761;-71
2021/11/21 07:36:30;;;;;;;6.43;5.93;;;;;;;2.40;90.33;95136.66;5050097;28;20672;-72
2021/11/21 07:38:59;;;;;;;7.17;6.57;;;;;;;2.50;90.39;95129.59;5051541;28;21674;-71
2021/11/21 07:41:27;;;;;;;7.87;7.23;;;;;;;2.70;89.63;95130.25;5046718;28;22272;-71
2021/11/21 07:43:55;;;;;;;7.33;6.67;;;;;;;2.78;89.36;95139.94;5051857;28;20217;-72
2021/11/21 07:46:26;;;;;;;7.27;6.77;;;;;;;2.81;88.91;95144.84;5049762;28;20292;-72
2021/11/21 07:48:54;;;;;;;6.93;6.30;;;;;;;2.89;88.51;95128.47;5048107;28;20259;-72
2021/11/21 07:51:23;;;;;;;8.03;7.40;;;;;;;2.99;88.36;95134.41;5057912;28;20275;-71
2021/11/21 07:53:51;;;;;;;6.60;5.97;;;;;;;3.05;88.01;95128.63;5049340;28;20210;-71
2021/11/21 07:56:21;;;;;;;6.87;6.30;;;;;;;3.12;87.59;95129.66;5047651;28;20813;-72
2021/11/21 07:58:50;;;;;;;6.83;6.23;;;;;;;3.19;87.33;95122.84;5047003;28;20221;-71
2021/11/21 08:01:18;;;;;;;5.70;5.20;;;;;;;3.34;88.09;95123.13;5048584;28;20749;-71
2021/11/21 08:03:46;;;;;;;7.93;7.20;;;;;;;3.52;87.45;95130.91;5050841;28;20222;-71
2021/11/21 08:06:14;;;;;;;8.90;8.20;;;;;;;3.63;87.05;95123.63;5050116;28;20218;-72
2021/11/21 08:08:43;;;;;;;7.20;6.63;;;;;;;3.69;86.71;95128.25;5053848;28;20228;-72
2021/11/21 08:11:11;;;;;;;7.57;6.93;;;;;;;3.74;86.43;95130.38;5057107;28;20225;-71
2021/11/21 08:13:40;;;;;;;6.50;6.00;;;;;;;3.81;86.29;95125.34;5052706;28;20652;-72
2021/11/21 08:16:08;;;;;;;7.93;7.20;;;;;;;3.72;85.52;95122.69;5048896;28;20222;-71
2021/11/21 08:18:37;;;;;;;7.20;6.70;;;;;;;3.86;85.19;95117.88;5046376;28;20304;-72
2021/11/21 08:21:05;;;;;;;7.80;7.10;;;;;;;3.97;85.73;95125.44;5046540;28;20242;-72
2021/11/21 08:23:33;;;;;;;8.63;7.10;;;;;;;4.08;85.36;95127.78;5051158;28;20226;-71
2021/11/21 08:26:01;;;;;;;7.20;6.73;;;;;;;4.18;85.27;95118.00;5050049;28;20214;-72
2021/11/21 08:28:29;;;;;;;6.60;6.10;;;;;;;4.25;85.34;95124.25;5053098;28;20224;-71
2021/11/21 08:30:59;;;;;;;8.50;7.80;;;;;;;4.42;85.45;95119.06;5051181;28;20288;-71
2021/11/21 08:33:27;;;;;;;8.47;7.77;;;;;;;4.80;85.78;95123.72;5059872;28;20638;-72
2021/11/21 08:35:55;;;;;;;6.87;6.27;;;;;;;6.13;82.92;95105.94;5054898;28;20792;-71
2021/11/21 08:38:23;;;;;;;5.20;4.87;;;;;;;8.09;74.37;95100.78;5063863;28;20238;-71
2021/11/21 08:40:52;;;;;;;6.60;5.97;;;;;;;9.23;69.50;95107.13;5062160;28;20260;-71
2021/11/21 08:43:20;;;;;;;5.47;4.97;;;;;;;10.64;65.35;95097.31;5064876;28;20286;-71
2021/11/21 08:45:49;;;;;;;6.60;5.97;;;;;;;11.36;62.42;95084.25;5058774;28;20229;-72
2021/11/21 08:48:18;;;;;;;4.87;4.47;;;;;;;12.60;59.26;95078.13;5056397;28;20237;-71
2021/11/21 08:50:46;;;;;;;5.20;4.80;;;;;;;12.06;58.61;95076.69;5062749;28;20809;-71
2021/11/21 08:53:14;;;;;;;7.23;5.30;;;;;;;11.90;60.44;95077.13;5052951;28;20230;-72
2021/11/21 08:55:43;;;;;;;5.50;5.10;;;;;;;12.15;59.11;95083.38;5058044;28;20230;-72
2021/11/21 08:58:16;;;;;;;3.90;3.60;;;;;;;12.06;58.81;95079.31;5061859;28;20226;-72
2021/11/21 09:00:48;;;;;;;4.73;4.43;;;;;;;11.33;59.88;95075.91;5060807;28;20342;-72
2021/11/21 09:03:18;;;;;;;4.37;4.07;;;;;;;11.39;61.16;95081.19;5062550;28;20272;-71
2021/11/21 09:05:49;;;;;;;5.00;4.70;;;;;;;11.09;61.13;95075.50;5048842;28;20230;-71
2021/11/21 09:08:18;;;;;;;5.50;5.13;;;;;;;10.89;62.29;95082.56;5025291;28;20241;-71
2021/11/21 09:10:46;;;;;;;5.80;5.43;;;;;;;10.22;65.56;95085.97;5061565;28;20218;-71
2021/11/21 09:13:15;;;;;;;7.07;6.43;;;;;;;9.77;67.04;95089.91;5062844;28;20208;-71
2021/11/21 09:15:43;;;;;;;5.10;4.70;;;;;;;10.71;64.89;95084.94;5064875;28;20278;-71
2021/11/21 09:18:11;;;;;;;4.17;3.87;;;;;;;10.46;64.45;95082.81;5064347;28;20294;-71
2021/11/21 09:20:41;;;;;;;6.57;5.83;;;;;;;10.40;66.49;95077.53;5059761;28;20289;-71
2021/11/21 09:23:11;;;;;;;6.13;5.70;;;;;;;10.39;65.77;95079.34;5064165;28;20230;-71
2021/11/21 09:25:39;;;;;;;4.63;4.23;;;;;;;10.22;67.06;95067.50;5057364;28;20230;-71
2021/11/21 09:28:08;;;;;;;5.43;5.03;;;;;;;10.94;65.49;95074.84;5064355;28;20650;-71
2021/11/21 09:30:36;;;;;;;4.60;4.00;;;;;;;10.07;66.71;95069.44;5063994;28;20287;-71
2021/11/21 09:33:10;;;;;;;6.30;5.67;;;;;;;11.11;65.27;95068.16;5059967;28;20220;-71
2021/11/21 09:35:40;;;;;;;5.10;4.70;;;;;;;10.30;65.18;95072.63;5061373;28;20292;-72
2021/11/21 09:38:08;;;;;;;4.50;4.07;;;;;;;11.69;64.11;95071.00;5060585;28;20633;-71
2021/11/21 09:40:36;;;;;;;5.50;5.07;;;;;;;12.08;61.95;95063.28;5055299;28;21217;-71
2021/11/21 09:43:04;;;;;;;4.17;3.93;;;;;;;12.46;60.56;95055.41;5061829;28;20311;-71
2021/11/21 09:45:33;;;;;;;6.53;5.97;;;;;;;13.67;58.34;95055.25;5057387;28;20265;-72
2021/11/21 09:48:02;;;;;;;5.77;5.37;;;;;;;12.58;59.97;95056.34;5055861;28;20317;-71
2021/11/21 09:50:31;;;;;;;4.20;3.90;;;;;;;12.26;59.42;95054.69;5058897;28;20222;-71
2021/11/21 09:53:01;;;;;;;5.40;5.10;;;;;;;12.22;61.45;95060.38;5060198;28;20230;-72
2021/11/21 09:55:29;;;;;;;5.40;5.00;;;;;;;11.22;62.23;95056.19;5050614;28;20250;-71
2021/11/21 09:57:57;;;;;;;6.03;5.53;;;;;;;12.24;61.95;95047.72;5062733;28;20219;-71
2021/11/21 10:00:27;;;;;;;8.67;7.87;;;;;;;12.20;60.00;95043.91;5065963;28;20293;-72
2021/11/21 10:03:03;;;;;;;5.87;5.47;;;;;;;11.72;62.49;95042.56;5063813;28;20260;-71
2021/11/21 10:05:34;;;;;;;5.00;4.60;;;;;;;10.41;64.29;95044.84;5062321;28;20269;-71
2021/11/21 10:08:05;;;;;;;5.10;4.80;;;;;;;10.49;65.63;95044.69;5070719;28;22122;-71
2021/11/21 10:10:37;;;;;;;4.37;4.07;;;;;;;9.74;66.55;95043.69;5066440;28;20222;-71
2021/11/21 10:13:05;;;;;;;5.27;4.83;;;;;;;9.77;67.22;95045.94;5061130;28;20293;-71
2021/11/21 10:15:33;;;;;;;5.67;5.17;;;;;;;10.92;65.85;95031.19;5057022;28;20214;-71
2021/11/21 10:18:01;;;;;;;5.50;4.37;;;;;;;10.99;66.82;95040.75;5063530;28;20236;-71
2021/11/21 10:20:30;;;;;;;4.83;4.47;;;;;;;11.27;64.91;95037.09;5061557;28;20710;-71
2021/11/21 10:23:02;;;;;;;4.83;4.53;;;;;;;10.86;63.80;95038.06;5064781;28;20218;-71
2021/11/21 10:25:41;;;;;;;7.13;5.23;;;;;;;9.98;66.60;95043.25;5058119;28;21101;-71
2021/11/21 10:28:12;;;;;;;4.67;4.37;;;;;;;11.24;66.09;95029.56;5055590;28;20287;-71
2021/11/21 10:31:05;;;;;;;4.97;4.60;;;;;;;12.35;62.12;95026.97;5068649;28;20230;-72
2021/11/21 10:33:37;;;;;;;5.37;4.97;;;;;;;13.03;61.45;95020.03;5063313;28;20305;-71
2021/11/21 10:36:08;;;;;;;4.30;3.93;;;;;;;13.69;57.67;95016.06;5057065;28;20294;-71
2021/11/21 10:38:43;;;;;;;4.50;4.23;;;;;;;15.11;56.57;95005.97;5055571;28;20787;-71
2021/11/21 10:41:16;;;;;;;7.87;4.70;;;;;;;14.39;55.73;95007.75;5060000;28;20231;-71
2021/11/21 10:44:04;;;;;;;5.07;4.77;;;;;;;14.54;56.74;95010.03;5058139;28;20222;-71
2021/11/21 10:46:36;;;;;;;5.17;4.67;;;;;;;13.05;57.94;95001.28;5058903;28;20829;-71
2021/11/21 10:49:22;;;;;;;5.63;5.10;;;;;;;11.84;61.35;94998.63;5052559;28;20252;-71
2021/11/21 10:52:02;;;;;;;5.13;4.87;;;;;;;12.66;60.37;95003.19;5049134;28;20766;-72
2021/11/21 10:54:33;;;;;;;6.20;5.70;;;;;;;13.67;58.53;94988.97;5061694;28;20213;-71
2021/11/21 10:57:07;;;;;;;4.20;3.93;;;;;;;13.50;57.61;94991.38;5063592;28;20317;-71
2021/11/21 10:59:39;;;;;;;3.93;3.63;;;;;;;13.70;56.74;94982.41;5065848;28;20222;-72
2021/11/21 11:02:12;;;;;;;6.87;5.70;;;;;;;14.06;56.82;94984.25;5047632;28;20297;-72
2021/11/21 11:05:02;;;;;;;4.97;4.67;;;;;;;13.64;56.87;94986.75;5067462;28;20225;-71
2021/11/21 11:07:34;;;;;;;4.67;4.37;;;;;;;14.67;56.86;94988.63;5047266;28;20320;-71
2021/11/21 11:10:05;;;;;;;3.90;3.70;;;;;;;13.41;56.84;94984.72;5060621;28;20267;-72
2021/11/21 11:12:35;;;;;;;4.03;3.77;;;;;;;13.00;59.45;94993.19;5066266;28;20226;-71
2021/11/21 11:15:04;;;;;;;5.20;4.90;;;;;;;13.21;57.92;94994.69;5063322;28;20224;-71
2021/11/21 11:17:32;;;;;;;4.80;4.50;;;;;;;12.19;59.73;94992.00;5057618;28;20306;-71
2021/11/21 11:20:04;;;;;;;4.63;4.33;;;;;;;11.45;63.10;95000.31;5050113;28;20227;-71
2021/11/21 11:22:32;;;;;;;5.03;4.63;;;;;;;11.39;64.28;94994.00;5046318;28;20763;-71
2021/11/21 11:25:06;;;;;;;4.47;4.07;;;;;;;11.67;62.52;94983.19;5043951;28;20304;-71
2021/11/21 11:27:47;;;;;;;5.67;5.27;;;;;;;13.61;60.74;94965.97;5045820;28;20229;-72
2021/11/21 11:30:18;;;;;;;5.27;4.97;;;;;;;14.97;57.70;94968.16;5035447;28;20233;-72
2021/11/21 11:32:47;;;;;;;4.80;4.47;;;;;;;16.23;53.68;94965.16;5046090;28;20624;-72
2021/11/21 11:35:32;;;;;;;4.83;4.43;;;;;;;17.04;51.81;94953.38;5042161;28;20231;-72
2021/11/21 11:38:10;;;;;;;4.83;4.43;;;;;;;17.82;50.13;94947.13;5046411;28;20250;-72
2021/11/21 11:40:42;;;;;;;4.80;4.47;;;;;;;18.25;49.81;94950.88;5050949;28;20347;-72
2021/11/21 11:43:32;;;;;;;4.13;3.93;;;;;;;18.63;47.97;94946.50;5046392;28;21395;-72
2021/11/21 11:46:03;;;;;;;4.80;4.40;;;;;;;17.09;48.48;94944.63;5049059;28;20304;-72
2021/11/21 11:48:34;;;;;;;3.87;3.57;;;;;;;15.06;52.54;94950.84;5049708;28;20222;-72
2021/11/21 11:51:05;;;;;;;5.03;4.73;;;;;;;15.22;55.27;94945.91;5050296;28;20303;-72